createdAt,value
2023-02-24T00:00:51.524Z,21.97
2023-02-24T00:03:24.142Z,17.87
2023-02-24T00:05:54.903Z,25.20
2023-02-24T00:08:25.816Z,18.57
2023-02-24T00:10:57.490Z,21.07
2023-02-24T00:13:32.710Z,20.97
2023-02-24T00:16:05.107Z,21.30
2023-02-24T00:18:38.556Z,20.60
2023-02-24T00:21:11.181Z,16.93
2023-02-24T00:23:42.682Z,18.77
2023-02-24T00:26:14.484Z,18.80
2023-02-24T00:28:46.074Z,23.60
2023-02-24T00:31:21.896Z,22.77
2023-02-24T00:33:57.732Z,16.97
2023-02-24T00:36:30.637Z,20.73
2023-02-24T00:39:09.291Z,15.37
2023-02-24T00:41:43.458Z,14.30
2023-02-24T00:44:16.724Z,18.10
2023-02-24T00:46:49.641Z,22.90
2023-02-24T00:49:24.528Z,21.97
2023-02-24T00:51:55.666Z,22.03
2023-02-24T00:54:28.392Z,17.53
2023-02-24T00:57:00.003Z,21.27
2023-02-24T00:59:31.018Z,19.17
2023-02-24T01:02:03.281Z,23.20
2023-02-24T01:04:37.729Z,23.60
2023-02-24T01:07:11.106Z,20.93
2023-02-24T01:09:44.298Z,19.93
2023-02-24T01:12:33.987Z,16.33
2023-02-24T01:15:05.755Z,14.63
2023-02-24T01:17:38.615Z,18.10
2023-02-24T01:20:20.334Z,17.20
2023-02-24T01:22:53.876Z,22.30
2023-02-24T01:25:25.262Z,14.67
2023-02-24T01:27:56.021Z,13.00
2023-02-24T01:30:26.810Z,18.63
2023-02-24T01:32:57.675Z,20.97
2023-02-24T01:35:31.718Z,23.23
2023-02-24T01:38:02.496Z,20.03
2023-02-24T01:40:33.253Z,11.63
2023-02-24T01:43:08.945Z,14.47
2023-02-24T01:45:40.206Z,18.40
2023-02-24T01:48:17.314Z,19.37
2023-02-24T01:50:55.066Z,22.70
2023-02-24T01:53:28.272Z,21.80
2023-02-24T01:55:59.286Z,23.03
2023-02-24T01:58:33.611Z,16.60
2023-02-24T02:01:08.838Z,20.40
2023-02-24T02:03:45.238Z,21.23
2023-02-24T02:06:20.401Z,16.70
2023-02-24T02:08:51.187Z,18.03
2023-02-24T02:11:23.424Z,17.23
2023-02-24T02:13:57.041Z,20.50
2023-02-24T02:16:56.233Z,17.90
2023-02-24T02:20:01.252Z,24.40
2023-02-24T02:23:06.816Z,18.47
2023-02-24T02:25:50.998Z,16.57
2023-02-24T02:29:00.942Z,15.50
2023-02-24T02:32:19.438Z,18.80
2023-02-24T02:34:59.794Z,24.77
2023-02-24T02:37:39.103Z,24.47
2023-02-24T02:40:19.979Z,21.00
2023-02-24T02:43:00.532Z,18.27
2023-02-24T02:45:36.999Z,17.33
2023-02-24T02:48:12.744Z,20.10
2023-02-24T02:50:50.688Z,20.67
2023-02-24T02:53:26.945Z,23.77
2023-02-24T02:56:02.505Z,17.80
2023-02-24T02:58:40.326Z,14.23
2023-02-24T03:01:16.440Z,17.73
2023-02-24T03:03:50.776Z,19.43
2023-02-24T03:06:30.248Z,22.37
2023-02-24T03:09:11.390Z,16.97
2023-02-24T03:11:43.581Z,18.83
2023-02-24T03:14:18.543Z,13.10
2023-02-24T03:16:52.083Z,17.50
2023-02-24T03:19:27.033Z,18.50
2023-02-24T03:22:06.772Z,21.17
2023-02-24T03:24:39.108Z,18.60
2023-02-24T03:27:15.924Z,16.80
2023-02-24T03:29:52.977Z,21.43
2023-02-24T03:32:33.535Z,20.47
2023-02-24T03:35:10.194Z,23.53
2023-02-24T03:37:43.559Z,17.63
2023-02-24T03:40:17.910Z,14.57
2023-02-24T03:42:54.805Z,14.30
2023-02-24T03:45:27.895Z,17.17
2023-02-24T03:48:00.156Z,30.17
2023-02-24T03:50:32.108Z,19.40
2023-02-24T03:53:22.428Z,12.80
2023-02-24T03:56:06.092Z,15.27
2023-02-24T03:58:47.213Z,19.50
2023-02-24T04:01:26.867Z,18.60
2023-02-24T04:04:06.895Z,19.20
2023-02-24T04:06:45.735Z,12.80
2023-02-24T04:09:26.038Z,13.60
2023-02-24T04:12:02.439Z,14.20
2023-02-24T04:14:36.928Z,11.40
2023-02-24T04:17:13.504Z,15.07
2023-02-24T04:19:48.021Z,15.80
2023-02-24T04:22:24.657Z,14.83
2023-02-24T04:25:02.524Z,13.57
2023-02-24T04:27:36.730Z,10.73
2023-02-24T04:30:10.698Z,14.17
2023-02-24T04:32:42.837Z,18.47
2023-02-24T04:35:18.383Z,18.80
2023-02-24T04:37:49.487Z,13.30
2023-02-24T04:40:24.768Z,19.00
2023-02-24T04:42:58.508Z,10.60
2023-02-24T04:45:31.809Z,17.17
2023-02-24T04:48:12.890Z,20.73
2023-02-24T04:50:45.357Z,11.87
2023-02-24T04:53:18.562Z,18.30
2023-02-24T04:55:51.872Z,17.20
2023-02-24T04:58:27.553Z,13.27
2023-02-24T05:00:58.939Z,11.53
2023-02-24T05:03:30.714Z,14.70
2023-02-24T05:06:02.975Z,17.20
2023-02-24T05:08:34.104Z,13.50
2023-02-24T05:11:08.501Z,13.70
2023-02-24T05:13:39.806Z,12.17
2023-02-24T05:16:13.421Z,10.27
2023-02-24T05:18:44.866Z,10.70
2023-02-24T05:21:30.230Z,10.23
2023-02-24T05:24:07.486Z,11.90
2023-02-24T05:26:42.631Z,11.20
2023-02-24T05:29:14.885Z,12.20
2023-02-24T05:31:45.881Z,9.60
2023-02-24T05:34:19.681Z,10.63
2023-02-24T05:36:53.342Z,12.77
2023-02-24T05:39:27.171Z,10.20
2023-02-24T05:42:06.306Z,14.13
2023-02-24T05:44:37.877Z,11.80
2023-02-24T05:47:10.895Z,11.93
2023-02-24T05:49:44.070Z,14.83
2023-02-24T05:52:14.827Z,14.77
2023-02-24T05:54:48.399Z,9.37
2023-02-24T05:57:24.872Z,11.33
2023-02-24T05:59:57.138Z,13.23
2023-02-24T06:02:37.303Z,15.00
2023-02-24T06:05:33.008Z,12.00
2023-02-24T06:08:07.168Z,13.10
2023-02-24T06:10:48.088Z,13.93
2023-02-24T06:13:37.381Z,10.70
2023-02-24T06:16:12.964Z,15.30
2023-02-24T06:18:44.302Z,17.97
2023-02-24T06:21:15.392Z,14.80
2023-02-24T06:23:46.517Z,17.90
2023-02-24T06:26:19.550Z,17.70
2023-02-24T06:28:55.623Z,15.63
2023-02-24T06:31:26.717Z,10.33
2023-02-24T06:34:00.700Z,15.00
2023-02-24T06:36:34.796Z,9.20
2023-02-24T06:39:08.118Z,10.73
2023-02-24T06:41:39.456Z,8.37
2023-02-24T06:44:13.827Z,11.50
2023-02-24T06:46:46.149Z,10.13
2023-02-24T06:49:16.840Z,14.10
2023-02-24T06:51:48.662Z,12.13
2023-02-24T06:54:19.684Z,13.33
2023-02-24T06:56:51.311Z,19.20
2023-02-24T06:59:28.609Z,8.07
2023-02-24T07:02:02.003Z,12.80
2023-02-24T07:04:43.603Z,14.83
2023-02-24T07:07:15.167Z,10.03
2023-02-24T07:09:47.252Z,8.73
2023-02-24T07:12:20.930Z,10.03
2023-02-24T07:14:54.390Z,11.93
2023-02-24T07:17:25.928Z,9.20
2023-02-24T07:19:57.435Z,8.80
2023-02-24T07:22:28.407Z,13.07
2023-02-24T07:25:01.562Z,11.90
2023-02-24T07:27:32.311Z,12.63
2023-02-24T07:30:10.391Z,11.50
2023-02-24T07:32:46.814Z,14.43
2023-02-24T07:35:17.845Z,9.43
2023-02-24T07:37:48.927Z,12.73
2023-02-24T07:40:22.579Z,16.30
2023-02-24T07:42:57.308Z,10.77
2023-02-24T07:45:30.862Z,14.03
2023-02-24T07:48:04.579Z,7.50
2023-02-24T07:50:35.457Z,8.73
2023-02-24T07:53:07.740Z,10.63
2023-02-24T07:55:40.185Z,9.57
2023-02-24T07:58:11.108Z,12.13
2023-02-24T08:00:59.533Z,13.70
2023-02-24T08:03:31.134Z,14.57
2023-02-24T08:06:15.489Z,9.43
2023-02-24T08:09:16.379Z,13.60
2023-02-24T08:11:52.529Z,12.60
2023-02-24T08:14:26.874Z,12.50
2023-02-24T08:17:00.248Z,12.50
2023-02-24T08:19:33.263Z,10.20
2023-02-24T08:22:19.354Z,12.23
2023-02-24T08:24:55.501Z,9.97
2023-02-24T08:27:30.392Z,11.70
2023-02-24T08:30:04.341Z,8.53
2023-02-24T08:32:43.766Z,13.50
2023-02-24T08:35:17.364Z,9.37
2023-02-24T08:37:51.795Z,7.03
2023-02-24T08:40:50.261Z,10.13
2023-02-24T08:43:33.230Z,14.20
2023-02-24T08:46:13.138Z,9.20
2023-02-24T08:48:48.929Z,6.90
2023-02-24T08:51:23.559Z,13.67
2023-02-24T08:53:56.534Z,14.37
2023-02-24T08:56:29.537Z,11.83
2023-02-24T08:59:05.955Z,9.13
2023-02-24T09:01:40.362Z,13.60
2023-02-24T09:04:19.685Z,12.53
2023-02-24T09:07:10.798Z,10.90
2023-02-24T09:09:43.051Z,9.67
2023-02-24T09:15:41.641Z,7.07
2023-02-24T09:18:14.419Z,9.60
2023-02-24T09:21:19.186Z,11.37
2023-02-24T09:23:52.785Z,11.03
2023-02-24T09:26:23.546Z,8.50
2023-02-24T09:28:58.272Z,9.57
2023-02-24T09:31:40.864Z,10.73
2023-02-24T09:34:20.797Z,14.03
2023-02-24T09:37:03.104Z,12.03
2023-02-24T09:39:57.371Z,12.03
2023-02-24T09:42:46.418Z,12.53
2023-02-24T09:45:33.473Z,17.83
2023-02-24T09:48:12.958Z,13.10
2023-02-24T09:51:04.644Z,13.33
2023-02-24T09:53:49.576Z,9.90
2023-02-24T09:56:24.704Z,10.80
2023-02-24T09:59:10.421Z,16.80
2023-02-24T10:01:50.330Z,11.53
2023-02-24T10:04:39.982Z,9.63
2023-02-24T10:07:17.024Z,14.70
2023-02-24T10:09:54.968Z,9.90
2023-02-24T10:12:39.917Z,14.73
2023-02-24T10:15:42.969Z,9.83
2023-02-24T10:18:29.584Z,13.60
2023-02-24T10:21:08.617Z,9.10
2023-02-24T10:23:56.680Z,10.17
2023-02-24T10:26:57.946Z,8.33
2023-02-24T10:29:43.330Z,9.67
2023-02-24T10:32:24.504Z,13.30
2023-02-24T10:34:56.067Z,10.23
2023-02-24T10:37:31.252Z,9.27
2023-02-24T10:40:09.775Z,11.13
2023-02-24T10:43:03.224Z,10.70
2023-02-24T10:45:35.179Z,15.00
2023-02-24T10:48:12.009Z,12.93
2023-02-24T10:50:56.252Z,6.83
2023-02-24T10:53:37.217Z,7.13
2023-02-24T10:56:23.881Z,9.00
2023-02-24T10:59:19.475Z,10.30
2023-02-24T11:02:06.781Z,12.00
2023-02-24T11:04:52.851Z,14.60
2023-02-24T11:07:44.178Z,10.47
2023-02-24T11:10:26.014Z,15.27
2023-02-24T11:13:11.501Z,11.50
2023-02-24T11:16:00.853Z,9.63
2023-02-24T11:18:33.533Z,8.77
2023-02-24T11:21:06.607Z,15.07
2023-02-24T11:23:43.085Z,7.80
2023-02-24T11:26:19.430Z,13.53
2023-02-24T11:29:05.901Z,9.50
2023-02-24T11:32:11.643Z,9.60
2023-02-24T11:34:50.197Z,12.00
2023-02-24T11:37:34.533Z,10.53
2023-02-24T11:40:18.875Z,10.63
2023-02-24T11:42:56.231Z,13.33
2023-02-24T11:45:36.331Z,9.23
2023-02-24T11:48:15.989Z,13.87
2023-02-24T11:50:50.182Z,13.30
2023-02-24T11:53:30.111Z,16.70
2023-02-24T11:56:05.513Z,13.10
2023-02-24T11:58:44.656Z,9.50
2023-02-24T12:01:20.166Z,14.43
2023-02-24T12:04:02.961Z,13.40
2023-02-24T12:06:43.354Z,10.37
2023-02-24T12:09:19.980Z,13.27
2023-02-24T12:12:02.162Z,12.33
2023-02-24T12:14:38.997Z,11.53
2023-02-24T12:17:19.939Z,13.10
2023-02-24T12:20:05.871Z,15.33
2023-02-24T12:22:46.086Z,12.97
2023-02-24T12:25:19.026Z,13.13
2023-02-24T12:28:02.163Z,10.47
2023-02-24T12:30:51.290Z,14.50
2023-02-24T12:33:38.506Z,13.33
2023-02-24T12:36:20.959Z,11.47
2023-02-24T12:39:09.946Z,11.90
2023-02-24T12:41:58.117Z,14.20
2023-02-24T12:44:41.584Z,10.60
2023-02-24T12:47:16.131Z,11.87
2023-02-24T12:50:18.172Z,16.97
2023-02-24T12:52:59.395Z,14.20
2023-02-24T12:55:37.770Z,13.13
2023-02-24T12:58:15.309Z,11.13
2023-02-24T13:00:57.177Z,13.50
2023-02-24T13:03:42.304Z,14.07
2023-02-24T13:06:22.176Z,13.50
2023-02-24T13:09:05.425Z,17.43
2023-02-24T13:11:47.201Z,16.20
2023-02-24T13:14:27.370Z,13.00
2023-02-24T13:17:20.050Z,11.63
2023-02-24T13:19:52.355Z,12.27
2023-02-24T13:22:29.672Z,9.00
2023-02-24T13:25:15.146Z,11.37
2023-02-24T13:27:46.580Z,13.20
2023-02-24T13:30:38.948Z,10.40
2023-02-24T13:33:25.076Z,10.63
2023-02-24T13:36:12.637Z,12.10
2023-02-24T13:38:45.734Z,14.40
2023-02-24T13:41:43.377Z,12.57
2023-02-24T13:44:29.813Z,10.13
2023-02-24T13:47:34.280Z,12.33
2023-02-24T13:50:21.501Z,11.47
2023-02-24T13:53:09.752Z,14.27
2023-02-24T13:55:52.839Z,10.67
2023-02-24T13:58:53.003Z,14.13
2023-02-24T14:01:29.831Z,16.33
2023-02-24T14:04:17.458Z,15.30
2023-02-24T14:06:52.509Z,15.40
2023-02-24T14:09:30.290Z,12.47
2023-02-24T14:12:03.608Z,15.50
2023-02-24T14:14:37.237Z,15.40
2023-02-24T14:17:09.645Z,12.90
2023-02-24T14:19:43.310Z,14.80
2023-02-24T14:22:22.700Z,17.40
2023-02-24T14:25:04.996Z,16.80
2023-02-24T14:27:38.768Z,18.30
2023-02-24T14:30:26.385Z,18.10
2023-02-24T14:33:00.535Z,20.03
2023-02-24T14:35:36.508Z,19.47
2023-02-24T14:38:08.419Z,22.83
2023-02-24T14:40:49.965Z,19.80
2023-02-24T14:43:20.955Z,23.50
2023-02-24T14:45:57.652Z,22.00
2023-02-24T14:48:30.186Z,23.13
2023-02-24T14:51:09.916Z,24.27
2023-02-24T14:53:51.622Z,20.27
2023-02-24T14:56:28.208Z,19.57
2023-02-24T14:59:03.973Z,27.57
2023-02-24T15:01:43.110Z,23.43
2023-02-24T15:04:17.588Z,25.60
2023-02-24T15:06:49.166Z,25.33
2023-02-24T15:09:23.795Z,22.37
2023-02-24T15:11:56.218Z,19.27
2023-02-24T15:14:29.914Z,20.97
2023-02-24T15:17:05.917Z,21.57
2023-02-24T15:19:44.070Z,24.23
2023-02-24T15:22:25.272Z,21.13
2023-02-24T15:24:58.474Z,24.13
2023-02-24T15:27:30.996Z,25.83
2023-02-24T15:30:05.807Z,23.07
2023-02-24T15:32:41.886Z,26.67
2023-02-24T15:35:27.123Z,28.03
2023-02-24T15:37:58.174Z,31.13
2023-02-24T15:40:29.537Z,31.67
2023-02-24T15:43:02.279Z,32.87
2023-02-24T15:45:36.250Z,34.90
2023-02-24T15:48:23.430Z,37.17
2023-02-24T15:50:54.226Z,38.90
2023-02-24T15:53:25.146Z,36.73
2023-02-24T15:55:56.023Z,37.53
2023-02-24T15:58:26.902Z,37.17
2023-02-24T16:00:57.767Z,35.70
2023-02-24T16:03:35.245Z,39.23
2023-02-24T16:06:06.205Z,37.40
2023-02-24T16:08:44.983Z,38.50
2023-02-24T16:11:17.478Z,40.37
2023-02-24T16:13:53.918Z,40.40
2023-02-24T16:16:25.875Z,42.97
2023-02-24T16:18:59.489Z,56.70
2023-02-24T16:21:31.011Z,70.20
2023-02-24T16:24:01.975Z,37.63
2023-02-24T16:26:45.871Z,35.87
2023-02-24T16:29:18.316Z,42.00
2023-02-24T16:31:51.911Z,40.93
2023-02-24T16:34:25.404Z,35.50
2023-02-24T16:36:56.280Z,27.57
2023-02-24T16:42:21.902Z,32.80
2023-02-24T16:44:53.415Z,30.37
2023-02-24T16:47:27.068Z,23.67
2023-02-24T16:50:00.869Z,26.07
2023-02-24T16:52:31.726Z,25.40
2023-02-24T16:55:02.473Z,28.33
2023-02-24T16:57:33.397Z,25.43
2023-02-24T17:00:05.262Z,29.93
2023-02-24T17:02:37.363Z,26.80
2023-02-24T17:05:15.846Z,25.23
2023-02-24T17:07:46.720Z,20.93
2023-02-24T17:10:18.369Z,17.30
2023-02-24T17:12:49.547Z,17.00
2023-02-24T17:15:23.452Z,11.87
2023-02-24T17:17:54.407Z,13.20
2023-02-24T17:20:27.754Z,14.87
2023-02-24T17:22:58.555Z,19.83
2023-02-24T17:25:32.174Z,17.00
2023-02-24T17:28:05.413Z,14.57
2023-02-24T17:30:39.535Z,15.33
2023-02-24T17:33:11.201Z,13.07
2023-02-24T17:35:48.145Z,13.13
2023-02-24T17:38:20.597Z,24.17
2023-02-24T17:40:51.379Z,25.10
2023-02-24T17:43:22.225Z,27.63
2023-02-24T17:45:53.746Z,18.57
2023-02-24T17:48:24.882Z,19.23
2023-02-24T17:50:58.346Z,13.03
2023-02-24T17:53:31.311Z,13.27
2023-02-24T17:56:06.304Z,14.23
2023-02-24T17:58:37.120Z,11.93
2023-02-24T18:01:09.706Z,16.10
2023-02-24T18:03:40.530Z,11.33
2023-02-24T18:06:15.519Z,13.40
2023-02-24T18:08:46.546Z,8.40
2023-02-24T18:11:19.438Z,12.40
2023-02-24T18:13:52.658Z,14.83
2023-02-24T18:16:23.817Z,10.70
2023-02-24T18:18:55.314Z,7.60
2023-02-24T18:21:29.037Z,8.60
2023-02-24T18:23:59.909Z,8.30
2023-02-24T18:26:30.911Z,9.80
2023-02-24T18:29:02.845Z,8.70
2023-02-24T18:31:34.019Z,4.40
2023-02-24T18:34:05.045Z,10.13
2023-02-24T18:36:38.797Z,4.20
2023-02-24T18:39:16.290Z,4.90
2023-02-24T18:41:50.176Z,10.90
2023-02-24T18:44:21.019Z,5.67
2023-02-24T18:46:53.830Z,3.20
2023-02-24T18:49:24.598Z,6.53
2023-02-24T18:51:59.743Z,6.20
2023-02-24T18:54:32.958Z,2.67
2023-02-24T18:57:03.785Z,3.80
2023-02-24T18:59:34.510Z,6.47
2023-02-24T19:02:07.662Z,5.63
2023-02-24T19:04:38.501Z,8.00
2023-02-24T19:07:12.665Z,6.83
2023-02-24T19:09:43.917Z,7.80
2023-02-24T19:12:17.560Z,4.60
2023-02-24T19:14:48.642Z,8.30
2023-02-24T19:17:19.329Z,6.03
2023-02-24T19:19:50.619Z,4.20
2023-02-24T19:22:24.105Z,4.60
2023-02-24T19:24:55.253Z,5.57
2023-02-24T19:27:28.503Z,8.30
2023-02-24T19:29:59.254Z,7.03
2023-02-24T19:32:30.270Z,5.60
2023-02-24T19:35:01.149Z,6.33
2023-02-24T19:37:35.554Z,7.73
2023-02-24T19:40:06.653Z,7.63
2023-02-24T19:42:37.718Z,12.17
2023-02-24T19:45:10.282Z,4.90
2023-02-24T19:47:42.837Z,4.10
2023-02-24T19:50:17.411Z,6.17
2023-02-24T19:52:51.684Z,9.60
2023-02-24T19:55:22.512Z,7.73
2023-02-24T19:57:56.257Z,4.47
2023-02-24T20:00:30.370Z,7.20
2023-02-24T20:03:01.340Z,9.50
2023-02-24T20:05:32.012Z,11.60
2023-02-24T20:08:05.285Z,8.60
2023-02-24T20:10:35.982Z,10.17
2023-02-24T20:13:09.534Z,8.97
2023-02-24T20:15:40.398Z,8.20
2023-02-24T20:18:11.159Z,9.53
2023-02-24T20:20:41.990Z,10.70
2023-02-24T20:23:15.440Z,9.80
2023-02-24T20:25:53.754Z,11.13
2023-02-24T20:28:28.604Z,9.80
2023-02-24T20:31:04.606Z,7.10
2023-02-24T20:33:35.682Z,12.30
2023-02-24T20:36:10.490Z,11.87
2023-02-24T20:38:44.178Z,10.10
2023-02-24T20:41:15.114Z,11.47
2023-02-24T20:43:46.462Z,9.00
2023-02-24T20:46:24.267Z,11.43
2023-02-24T20:48:58.011Z,13.10
2023-02-24T20:51:30.043Z,9.40
2023-02-24T20:54:03.993Z,12.90
2023-02-24T20:56:37.682Z,12.97
2023-02-24T20:59:11.257Z,13.17
2023-02-24T21:01:47.453Z,10.50
2023-02-24T21:04:21.314Z,11.10
2023-02-24T21:06:53.059Z,12.77
2023-02-24T21:09:26.675Z,15.07
2023-02-24T21:11:57.402Z,13.97
2023-02-24T21:14:28.178Z,24.10
2023-02-24T21:16:59.267Z,12.40
2023-02-24T21:19:30.269Z,9.60
2023-02-24T21:22:01.614Z,9.33
2023-02-24T21:24:38.465Z,14.53
2023-02-24T21:27:10.587Z,16.57
2023-02-24T21:29:41.291Z,15.10
2023-02-24T21:32:12.543Z,12.90
2023-02-24T21:34:45.896Z,14.13
2023-02-24T21:37:18.669Z,24.87
2023-02-24T21:39:55.280Z,18.70
2023-02-24T21:42:30.340Z,14.57
2023-02-24T21:45:02.374Z,12.63
2023-02-24T21:47:33.674Z,22.77
2023-02-24T21:50:04.596Z,16.40
2023-02-24T21:52:38.432Z,11.47
2023-02-24T21:55:14.088Z,20.43
2023-02-24T21:57:46.318Z,16.40
2023-02-24T22:00:24.184Z,16.03
2023-02-24T22:02:59.694Z,18.47
2023-02-24T22:05:33.931Z,14.97
2023-02-24T22:08:04.821Z,17.03
2023-02-24T22:10:38.178Z,17.27
2023-02-24T22:13:08.905Z,13.40
2023-02-24T22:15:41.772Z,11.47
2023-02-24T22:18:12.579Z,12.73
2023-02-24T22:20:44.062Z,16.13
2023-02-24T22:23:14.886Z,10.03
2023-02-24T22:25:49.333Z,14.63
2023-02-24T22:28:20.269Z,12.50
2023-02-24T22:30:57.924Z,11.37
2023-02-24T22:33:28.989Z,16.73
2023-02-24T22:36:05.001Z,13.03
2023-02-24T22:38:38.464Z,17.40
2023-02-24T22:41:16.592Z,13.03
2023-02-24T22:43:50.628Z,13.60
2023-02-24T22:46:25.112Z,13.10
2023-02-24T22:49:01.110Z,17.43
2023-02-24T22:51:36.811Z,16.60
2023-02-24T22:54:08.330Z,18.80
2023-02-24T22:56:41.700Z,12.27
2023-02-24T22:59:13.668Z,17.33
2023-02-24T23:01:52.083Z,9.13
2023-02-24T23:04:22.781Z,11.60
2023-02-24T23:06:55.448Z,13.07
2023-02-24T23:09:29.110Z,17.57
2023-02-24T23:12:02.479Z,17.50
2023-02-24T23:14:33.239Z,12.60
2023-02-24T23:17:04.014Z,17.67
2023-02-24T23:19:37.401Z,13.47
2023-02-24T23:22:10.447Z,11.30
2023-02-24T23:24:41.228Z,15.27
2023-02-24T23:27:14.579Z,15.87
2023-02-24T23:29:46.057Z,12.23
2023-02-24T23:32:17.350Z,10.97
2023-02-24T23:34:48.755Z,11.77
2023-02-24T23:37:20.424Z,12.50
2023-02-24T23:39:51.133Z,13.17
2023-02-24T23:42:39.308Z,17.70
2023-02-24T23:45:17.375Z,11.03
2023-02-24T23:47:48.215Z,22.70
2023-02-24T23:50:20.327Z,14.60
2023-02-24T23:52:56.601Z,10.77
2023-02-24T23:55:30.590Z,14.80
2023-02-24T23:58:04.061Z,17.50
